Terminal Aerodrome Forecast
Issued by NWS

Home | Current Version | Previous Version | Graphics & Text | Print | Product List | Glossary On
Versions: 1 2 3 4 5 6 7 8 9 10 11 12 13 14 15 16 17 18 19 20 21 22 23 24 25 26 27 28 29 30 31 32 33 34 35 36 37 38 39 40 41 42 43 44 45 46 47 48 49 50
000
FTUS43 KLOT 261700 RRA
TAFGYY
TAF
KGYY 261745Z 2618/2718 05014G22KT 1SM -SHSN BLSN OVC010
      TEMPO 2618/2622 1/2SM SHSN BLSN VV008
     FM262200 36012G18KT 2SM -SHSN BLSN OVC020
     FM270000 34011KT 6SM BLSN VCSH BKN035
     FM270600 31007KT P6SM SCT035
     FM271500 27009KT P6SM SKC=

USA.gov is the U.S. government's official web portal to all federal, state and local government web resources and services.